Time;durP1;ratioP1;P1;durP2;ratioP2;P2;SDS_P1;SDS_P2;PMS_P1;PMS_P2;Temp;Humidity;BMP_temperature;BMP_pressure;BME280_temperature;BME280_humidity;BME280_pressure;Samples;Min_cycle;Max_cycle;Signal;HPM_P1;HPM_P2
2022/07/15 00:00:37;;;;;;;5.68;1.75;;;11.60;99.90;;;;;;4994579;28;20053;-71
2022/07/15 00:03:03;;;;;;;7.50;2.13;;;11.60;99.90;;;;;;5032447;28;20127;-70
2022/07/15 00:05:29;;;;;;;8.57;2.15;;;11.60;99.90;;;;;;5011904;28;20038;-70
2022/07/15 00:07:54;;;;;;;7.90;1.83;;;11.50;99.90;;;;;;4991539;28;20037;-70
2022/07/15 00:10:21;;;;;;;9.90;2.10;;;11.50;99.90;;;;;;4978078;28;20490;-70
2022/07/15 00:12:50;;;;;;;5.72;1.90;;;11.50;99.90;;;;;;4995344;28;20092;-71
2022/07/15 00:15:18;;;;;;;6.18;1.92;;;11.60;99.90;;;;;;5013394;28;20442;-70
2022/07/15 00:17:44;;;;;;;13.40;2.05;;;11.60;99.90;;;;;;5009918;28;20050;-70
2022/07/15 00:20:11;;;;;;;8.73;1.90;;;11.60;99.90;;;;;;4979655;28;20061;-70
2022/07/15 00:22:38;;;;;;;8.13;1.77;;;11.60;99.90;;;;;;4995473;28;20121;-70
2022/07/15 00:25:04;;;;;;;8.13;1.90;;;11.80;99.90;;;;;;4996994;28;20049;-70
2022/07/15 00:27:30;;;;;;;8.57;1.95;;;11.80;99.90;;;;;;4998113;28;20240;-72
2022/07/15 00:29:56;;;;;;;10.77;2.22;;;11.90;99.90;;;;;;4997052;28;20085;-71
2022/07/15 00:32:22;;;;;;;6.25;2.05;;;12.00;99.90;;;;;;5028078;28;20116;-72
2022/07/15 00:34:47;;;;;;;10.90;1.90;;;12.00;99.90;;;;;;4994885;28;20048;-71
2022/07/15 00:37:14;;;;;;;13.25;2.17;;;12.10;99.90;;;;;;4993667;28;20038;-71
2022/07/15 00:39:39;;;;;;;7.68;2.22;;;12.10;99.90;;;;;;5030041;28;20069;-71
2022/07/15 00:42:05;;;;;;;7.82;2.00;;;12.10;99.90;;;;;;5023352;28;20046;-69
2022/07/15 00:44:31;;;;;;;8.40;2.20;;;12.20;99.90;;;;;;5028651;28;20132;-69
2022/07/15 00:46:59;;;;;;;7.43;1.48;;;12.30;99.90;;;;;;4996834;28;20092;-69
2022/07/15 00:49:25;;;;;;;7.60;1.67;;;12.30;99.90;;;;;;4994914;28;20176;-69
2022/07/15 00:51:54;;;;;;;5.88;1.80;;;12.30;99.90;;;;;;4997338;28;20128;-69
2022/07/15 00:54:24;;;;;;;7.47;2.10;;;12.40;99.90;;;;;;5028582;28;20057;-70
2022/07/15 00:56:55;;;;;;;11.18;2.20;;;12.40;99.90;;;;;;4996140;28;20126;-70
2022/07/15 00:59:24;;;;;;;8.68;2.03;;;12.40;99.90;;;;;;4994230;28;20056;-70
2022/07/15 01:01:52;;;;;;;8.68;2.00;;;12.40;99.90;;;;;;5010090;28;20053;-70
2022/07/15 01:04:19;;;;;;;8.63;1.85;;;12.50;99.90;;;;;;5028418;28;20042;-70
2022/07/15 01:06:45;;;;;;;10.23;2.20;;;12.50;99.90;;;;;;4976431;28;20527;-70
2022/07/15 01:09:11;;;;;;;10.70;2.45;;;12.50;99.90;;;;;;5027395;28;20037;-70
2022/07/15 01:11:37;;;;;;;11.27;2.40;;;12.50;99.90;;;;;;4993746;28;20042;-70
2022/07/15 01:14:04;;;;;;;9.65;2.15;;;12.50;99.90;;;;;;4990759;28;20034;-70
2022/07/15 01:16:30;;;;;;;7.97;1.67;;;12.60;99.90;;;;;;4978567;28;20148;-70
2022/07/15 01:18:56;;;;;;;10.15;2.00;;;12.60;99.90;;;;;;4979056;28;20044;-70
2022/07/15 01:21:22;;;;;;;8.35;1.60;;;12.60;99.90;;;;;;4994325;28;20030;-70
2022/07/15 01:23:48;;;;;;;9.02;2.00;;;12.60;99.90;;;;;;5025407;28;20078;-70
2022/07/15 01:26:14;;;;;;;10.77;2.00;;;12.60;99.90;;;;;;4993858;28;20127;-69
2022/07/15 01:28:41;;;;;;;7.95;1.83;;;12.60;99.90;;;;;;5007743;28;20163;-69
2022/07/15 01:31:07;;;;;;;7.38;1.80;;;12.70;99.90;;;;;;4994043;28;20061;-69
2022/07/15 01:33:33;;;;;;;9.68;1.80;;;12.70;99.90;;;;;;5008626;28;20825;-69
2022/07/15 01:36:00;;;;;;;12.70;2.03;;;12.70;99.90;;;;;;5026834;28;20195;-70
2022/07/15 01:38:27;;;;;;;7.18;1.88;;;12.80;99.90;;;;;;4980740;28;20536;-70
2022/07/15 01:40:54;;;;;;;9.93;2.38;;;12.80;99.90;;;;;;5024779;28;20100;-70
2022/07/15 01:43:19;;;;;;;7.25;1.40;;;12.80;99.90;;;;;;4991398;28;20038;-70
2022/07/15 01:45:45;;;;;;;9.10;2.00;;;12.80;99.90;;;;;;4976271;28;20045;-70
2022/07/15 01:50:58;;;;;;;9.18;1.92;;;12.90;99.90;;;;;;5011191;28;20501;-70
2022/07/15 01:53:25;;;;;;;9.27;2.25;;;12.90;99.90;;;;;;5026106;28;20048;-70
2022/07/15 01:55:51;;;;;;;6.05;1.67;;;13.00;99.90;;;;;;4997024;28;20033;-70
2022/07/15 01:58:17;;;;;;;8.18;1.80;;;12.90;99.90;;;;;;5007609;28;20521;-70
2022/07/15 02:00:43;;;;;;;9.32;2.05;;;12.90;99.90;;;;;;5012423;28;20088;-70
2022/07/15 02:03:09;;;;;;;8.27;1.95;;;12.90;99.90;;;;;;4993618;28;20625;-70
2022/07/15 02:05:35;;;;;;;9.02;1.98;;;12.90;99.90;;;;;;4991355;28;20038;-70
2022/07/15 02:08:02;;;;;;;8.13;2.13;;;12.90;99.90;;;;;;4992170;28;20513;-70
2022/07/15 02:10:40;;;;;;;6.97;2.17;;;12.80;99.90;;;;;;4992007;28;20514;-70
2022/07/15 02:13:11;;;;;;;7.70;1.80;;;12.80;99.90;;;;;;5009844;28;20042;-70
2022/07/15 02:15:38;;;;;;;7.43;1.50;;;12.80;99.90;;;;;;4991642;28;20037;-70
2022/07/15 02:18:05;;;;;;;8.18;1.80;;;12.70;99.90;;;;;;4991209;28;20045;-70
2022/07/15 02:20:32;;;;;;;8.32;1.90;;;12.70;99.90;;;;;;4990588;28;20037;-70
2022/07/15 02:22:58;;;;;;;7.78;1.55;;;12.70;99.90;;;;;;4994832;28;20038;-70
2022/07/15 02:25:29;;;;;;;8.50;1.90;;;12.70;99.90;;;;;;5009456;28;20474;-70
2022/07/15 02:28:00;;;;;;;8.95;2.25;;;12.60;99.90;;;;;;4990699;28;20045;-70
2022/07/15 02:30:28;;;;;;;10.73;1.92;;;12.60;99.90;;;;;;4990462;28;20129;-70
2022/07/15 02:32:55;;;;;;;8.95;2.15;;;12.60;99.90;;;;;;5012913;28;20065;-69
2022/07/15 02:35:22;;;;;;;7.68;1.52;;;12.50;99.90;;;;;;4991369;28;20422;-69
2022/07/15 02:37:48;;;;;;;12.32;2.15;;;12.50;99.90;;;;;;4995256;28;20054;-70
2022/07/15 02:40:13;;;;;;;6.38;1.55;;;12.40;99.90;;;;;;5009624;28;20046;-70
2022/07/15 02:42:39;;;;;;;9.85;2.30;;;12.40;99.90;;;;;;4994978;28;20103;-70
2022/07/15 02:45:06;;;;;;;8.18;1.58;;;12.30;99.90;;;;;;5027569;28;20033;-70
2022/07/15 02:47:32;;;;;;;7.32;1.90;;;12.20;99.90;;;;;;5029662;28;20045;-70
2022/07/15 02:49:57;;;;;;;6.53;1.60;;;12.20;99.90;;;;;;5027028;28;20143;-70
2022/07/15 02:52:23;;;;;;;8.18;1.85;;;12.10;99.90;;;;;;5010414;28;20103;-69
2022/07/15 02:54:49;;;;;;;7.97;1.92;;;12.10;99.90;;;;;;5025834;28;20347;-70
2022/07/15 02:57:15;;;;;;;7.88;1.95;;;12.00;99.90;;;;;;5024218;28;20064;-70
2022/07/15 02:59:41;;;;;;;7.38;1.67;;;12.00;99.90;;;;;;5022793;28;20492;-69
2022/07/15 03:02:06;;;;;;;8.52;1.60;;;12.00;99.90;;;;;;4992876;28;20045;-70
2022/07/15 03:04:32;;;;;;;7.50;2.00;;;11.90;99.90;;;;;;4994131;28;20044;-69
2022/07/15 03:06:58;;;;;;;10.30;2.05;;;11.90;99.90;;;;;;4990292;28;20046;-69
2022/07/15 03:09:23;;;;;;;8.18;1.88;;;11.80;99.90;;;;;;4994028;28;20137;-69
2022/07/15 03:11:49;;;;;;;7.88;2.63;;;11.70;99.90;;;;;;4992623;28;20052;-69
2022/07/15 03:14:15;;;;;;;8.27;2.08;;;11.70;99.90;;;;;;5027008;28;20447;-70
2022/07/15 03:16:41;;;;;;;12.13;2.30;;;11.60;99.90;;;;;;5009385;28;20069;-69
2022/07/15 03:19:08;;;;;;;8.52;2.13;;;11.60;99.90;;;;;;4994106;28;20054;-70
2022/07/15 03:21:34;;;;;;;12.73;2.40;;;11.50;99.90;;;;;;5007886;28;20045;-70
2022/07/15 03:23:59;;;;;;;7.60;1.88;;;11.50;99.90;;;;;;5012054;28;20085;-70
2022/07/15 03:26:25;;;;;;;6.80;2.00;;;11.50;99.90;;;;;;5010349;28;20133;-70
2022/07/15 03:28:51;;;;;;;8.38;2.15;;;11.40;99.90;;;;;;4987987;28;20088;-70
2022/07/15 03:31:17;;;;;;;10.88;3.15;;;11.40;99.90;;;;;;5031921;28;20049;-68
2022/07/15 03:33:43;;;;;;;8.30;2.20;;;11.40;99.90;;;;;;4995094;28;20125;-68
2022/07/15 03:36:08;;;;;;;9.57;2.50;;;11.30;99.90;;;;;;4996521;28;20554;-68
2022/07/15 03:38:34;;;;;;;11.65;3.03;;;11.30;99.90;;;;;;4993825;28;20049;-68
2022/07/15 03:41:00;;;;;;;11.65;2.63;;;11.30;99.90;;;;;;5012802;28;20034;-68
2022/07/15 03:43:29;;;;;;;12.30;3.25;;;11.30;99.90;;;;;;4995482;28;20030;-68
2022/07/15 03:45:55;;;;;;;10.20;3.05;;;11.30;99.90;;;;;;5000066;28;20045;-68
2022/07/15 03:48:22;;;;;;;11.10;3.00;;;11.30;99.90;;;;;;4979935;28;20545;-67
2022/07/15 03:50:48;;;;;;;5.68;2.17;;;11.30;99.90;;;;;;5016173;28;20499;-68
2022/07/15 03:53:13;;;;;;;9.45;2.80;;;11.30;99.90;;;;;;5013898;28;20038;-68
2022/07/15 03:55:39;;;;;;;10.52;2.10;;;11.30;99.90;;;;;;4999619;28;20034;-68
2022/07/15 03:58:05;;;;;;;13.48;2.85;;;11.30;99.90;;;;;;5027828;28;20061;-68
2022/07/15 04:00:31;;;;;;;8.00;2.47;;;11.20;99.90;;;;;;5031403;28;20050;-68
2022/07/15 04:02:57;;;;;;;9.52;2.42;;;11.20;99.90;;;;;;4996806;28;20037;-70
2022/07/15 04:05:23;;;;;;;8.10;2.55;;;11.30;99.90;;;;;;4999994;28;20033;-70
2022/07/15 04:07:48;;;;;;;11.23;2.85;;;11.20;99.90;;;;;;4995859;28;20050;-70
2022/07/15 04:10:15;;;;;;;6.93;2.33;;;11.20;99.90;;;;;;5013804;28;20042;-69
2022/07/15 04:12:41;;;;;;;9.50;2.72;;;11.30;99.90;;;;;;4994784;28;20177;-69
2022/07/15 04:15:07;;;;;;;8.23;2.55;;;11.30;99.90;;;;;;5031920;28;20125;-69
2022/07/15 04:17:34;;;;;;;11.10;2.45;;;11.30;99.90;;;;;;5028574;28;20073;-69
2022/07/15 04:20:00;;;;;;;6.95;2.63;;;11.30;99.90;;;;;;4986643;28;20123;-69
2022/07/15 04:22:25;;;;;;;11.77;2.92;;;11.30;99.90;;;;;;4990220;28;20056;-69
2022/07/15 04:24:51;;;;;;;13.45;3.97;;;11.30;99.90;;;;;;5029686;28;20431;-70
2022/07/15 04:27:17;;;;;;;12.07;2.50;;;11.30;99.90;;;;;;5012110;28;20040;-69
2022/07/15 04:29:43;;;;;;;9.55;5.68;;;11.40;99.90;;;;;;5014630;28;20129;-67
2022/07/15 04:32:09;;;;;;;16.65;8.85;;;11.40;99.90;;;;;;5027974;28;20277;-69
2022/07/15 04:34:34;;;;;;;22.58;16.17;;;11.50;99.90;;;;;;5011586;28;20053;-68
2022/07/15 04:37:00;;;;;;;8.45;2.65;;;11.60;99.90;;;;;;4996019;28;20040;-68
2022/07/15 04:39:26;;;;;;;8.48;2.42;;;11.70;99.90;;;;;;5027462;28;20053;-69
2022/07/15 04:41:51;;;;;;;9.15;2.00;;;11.80;99.90;;;;;;5014128;28;20143;-69
2022/07/15 04:44:18;;;;;;;8.77;2.45;;;11.80;99.90;;;;;;5013755;28;20041;-69
2022/07/15 04:46:44;;;;;;;9.52;2.47;;;11.90;99.90;;;;;;4996805;28;20042;-69
2022/07/15 04:51:54;;;;;;;8.43;2.40;;;12.30;99.90;;;;;;4996396;28;20069;-69
2022/07/15 04:54:19;;;;;;;8.15;2.00;;;12.60;99.90;;;;;;5031644;28;20319;-69
2022/07/15 04:56:45;;;;;;;8.88;2.17;;;12.90;99.90;;;;;;5028861;28;20046;-69
2022/07/15 04:59:11;;;;;;;9.50;1.90;;;13.10;99.90;;;;;;5027421;28;20058;-69
2022/07/15 05:01:36;;;;;;;7.20;2.85;;;13.10;99.90;;;;;;5013035;28;20422;-69
2022/07/15 05:04:02;;;;;;;9.13;2.00;;;13.30;99.90;;;;;;5028899;28;20037;-69
2022/07/15 05:06:28;;;;;;;8.80;1.70;;;13.30;99.90;;;;;;5012698;28;20412;-69
2022/07/15 05:08:54;;;;;;;7.07;2.00;;;13.30;99.90;;;;;;5009930;28;20037;-69
2022/07/15 05:11:19;;;;;;;5.10;1.92;;;13.30;99.90;;;;;;5012317;28;20482;-69
2022/07/15 05:13:45;;;;;;;10.15;2.20;;;13.40;99.90;;;;;;5030189;28;20056;-69
2022/07/15 05:16:11;;;;;;;7.40;1.80;;;13.30;99.90;;;;;;4994637;28;20038;-69
2022/07/15 05:18:37;;;;;;;5.88;1.75;;;13.40;99.90;;;;;;5031544;28;20064;-69
2022/07/15 05:21:03;;;;;;;7.30;1.98;;;13.40;99.90;;;;;;5027354;28;20073;-69
2022/07/15 05:23:29;;;;;;;6.32;1.73;;;13.40;99.90;;;;;;4995387;28;20584;-69
2022/07/15 05:25:54;;;;;;;6.47;1.55;;;13.50;99.90;;;;;;5027708;28;20069;-68
2022/07/15 05:28:20;;;;;;;6.72;1.25;;;13.50;99.90;;;;;;4996550;28;20485;-68
2022/07/15 05:30:46;;;;;;;6.68;1.40;;;13.50;99.90;;;;;;5017537;28;20529;-68
2022/07/15 05:33:14;;;;;;;8.52;1.60;;;13.50;99.90;;;;;;5014406;28;20129;-69
2022/07/15 05:35:40;;;;;;;7.28;2.05;;;13.50;99.90;;;;;;5022959;28;20045;-69
2022/07/15 05:38:06;;;;;;;6.63;1.60;;;13.60;99.90;;;;;;5020529;28;20045;-69
2022/07/15 05:40:33;;;;;;;6.53;2.00;;;13.60;99.90;;;;;;5012032;28;20382;-69
2022/07/15 05:42:59;;;;;;;7.38;1.50;;;13.70;99.90;;;;;;4999694;28;20072;-69
2022/07/15 05:45:25;;;;;;;4.38;1.38;;;13.70;99.90;;;;;;5014865;28;20468;-69
2022/07/15 05:47:51;;;;;;;7.75;1.15;;;13.80;99.90;;;;;;4999958;28;20042;-70
2022/07/15 05:50:18;;;;;;;5.32;1.30;;;13.80;99.90;;;;;;5031031;28;20124;-70
2022/07/15 05:52:43;;;;;;;3.92;0.80;;;13.80;99.90;;;;;;4988905;28;20129;-70
2022/07/15 05:55:10;;;;;;;3.03;0.95;;;13.90;99.90;;;;;;5016700;28;20116;-70
2022/07/15 05:57:36;;;;;;;5.30;1.20;;;13.90;99.90;;;;;;4995088;28;20050;-70
2022/07/15 06:00:03;;;;;;;5.28;1.10;;;13.90;99.90;;;;;;5004593;28;20116;-70
2022/07/15 06:02:30;;;;;;;5.50;1.00;;;13.90;99.90;;;;;;5013585;28;20038;-70
2022/07/15 06:04:56;;;;;;;3.88;0.80;;;14.00;99.90;;;;;;5032555;28;20086;-70
2022/07/15 06:07:22;;;;;;;7.13;0.93;;;14.10;99.90;;;;;;4995917;28;20068;-70
2022/07/15 06:09:50;;;;;;;3.88;0.75;;;14.30;99.90;;;;;;4999996;28;20045;-70
2022/07/15 06:12:17;;;;;;;3.08;0.77;;;14.40;99.90;;;;;;4995682;28;20042;-69
2022/07/15 06:14:43;;;;;;;5.20;0.93;;;14.60;99.90;;;;;;4995539;28;20046;-69
2022/07/15 06:17:08;;;;;;;5.43;0.70;;;14.70;99.90;;;;;;4996249;28;20045;-69
2022/07/15 06:19:34;;;;;;;3.65;0.52;;;14.90;99.90;;;;;;4996504;28;20046;-69
2022/07/15 06:22:00;;;;;;;3.88;0.70;;;15.10;99.90;;;;;;4995253;28;20049;-69
2022/07/15 06:24:26;;;;;;;4.72;0.60;;;15.20;99.90;;;;;;4998430;28;20046;-70
2022/07/15 06:26:51;;;;;;;4.80;0.77;;;15.30;99.90;;;;;;4993952;28;20084;-70
2022/07/15 06:29:17;;;;;;;2.70;0.77;;;15.50;99.90;;;;;;5028763;28;20037;-70
2022/07/15 06:31:43;;;;;;;4.90;0.80;;;15.60;99.90;;;;;;5028072;28;20067;-70
2022/07/15 06:34:09;;;;;;;3.38;0.77;;;15.70;99.90;;;;;;5026567;28;20455;-70
2022/07/15 06:36:34;;;;;;;3.33;0.50;;;15.80;99.90;;;;;;5025714;28;20080;-70
2022/07/15 06:39:00;;;;;;;4.15;0.77;;;15.90;99.90;;;;;;4993447;28;20136;-70
2022/07/15 06:41:26;;;;;;;2.88;0.32;;;16.00;99.90;;;;;;5012889;28;20486;-70
2022/07/15 06:43:52;;;;;;;5.07;0.50;;;16.20;99.90;;;;;;5024413;28;20041;-70
2022/07/15 06:46:18;;;;;;;4.53;0.40;;;16.30;99.90;;;;;;5029682;28;20030;-70
2022/07/15 06:48:43;;;;;;;2.13;0.30;;;16.40;99.90;;;;;;5022277;28;20120;-70
2022/07/15 06:51:09;;;;;;;1.50;0.17;;;16.50;99.90;;;;;;4998414;28;20042;-70
2022/07/15 06:53:36;;;;;;;2.63;0.35;;;16.60;99.90;;;;;;5010031;28;20418;-70
2022/07/15 06:56:01;;;;;;;2.00;0.20;;;16.80;99.90;;;;;;4991582;28;20112;-70
2022/07/15 06:58:27;;;;;;;1.35;0.20;;;16.90;99.90;;;;;;4992899;28;20180;-70
2022/07/15 07:00:53;;;;;;;3.05;0.40;;;17.00;99.90;;;;;;5010293;28;20065;-70
2022/07/15 07:03:19;;;;;;;3.97;0.40;;;17.00;99.90;;;;;;5025587;28;20052;-70
2022/07/15 07:05:44;;;;;;;3.17;0.45;;;17.10;99.90;;;;;;5010963;28;20070;-70
2022/07/15 07:08:10;;;;;;;2.13;0.20;;;17.20;99.90;;;;;;4991621;28;20057;-70
2022/07/15 07:10:36;;;;;;;4.80;0.13;;;17.30;99.90;;;;;;4996837;28;20397;-69
2022/07/15 07:13:02;;;;;;;1.98;0.30;;;17.40;99.90;;;;;;4975638;28;20053;-70
2022/07/15 07:15:27;;;;;;;1.77;0.20;;;17.40;99.90;;;;;;4991513;28;20045;-70
2022/07/15 07:17:53;;;;;;;3.10;0.25;;;17.50;99.90;;;;;;4993531;28;20038;-70
2022/07/15 07:20:19;;;;;;;3.70;0.30;;;17.60;99.90;;;;;;5025965;28;20502;-70
2022/07/15 07:22:45;;;;;;;4.50;0.28;;;17.70;99.90;;;;;;5026842;28;20040;-70
2022/07/15 07:25:11;;;;;;;3.13;0.20;;;17.80;99.90;;;;;;5010556;28;20037;-70
2022/07/15 07:27:36;;;;;;;1.70;0.10;;;17.90;99.90;;;;;;5008244;28;20065;-70
2022/07/15 07:30:04;;;;;;;2.50;0.30;;;18.00;99.90;;;;;;4993168;28;20034;-70
2022/07/15 07:32:30;;;;;;;2.95;0.32;;;18.20;99.90;;;;;;4994043;28;20505;-69
2022/07/15 07:34:56;;;;;;;1.63;0.10;;;18.30;99.90;;;;;;4976563;28;20046;-70
2022/07/15 07:37:22;;;;;;;3.47;0.25;;;18.50;99.70;;;;;;4995817;28;20049;-70
2022/07/15 07:39:49;;;;;;;2.63;0.15;;;18.60;99.20;;;;;;5008963;28;20077;-70
2022/07/15 07:42:15;;;;;;;2.90;0.10;;;18.80;98.40;;;;;;5027076;28;20115;-70
2022/07/15 07:44:42;;;;;;;2.17;0.15;;;19.00;97.50;;;;;;4994397;28;20038;-69
2022/07/15 07:47:08;;;;;;;1.08;0.15;;;19.00;95.90;;;;;;5009162;28;20096;-70
2022/07/15 07:49:34;;;;;;;1.77;0.20;;;19.00;95.40;;;;;;4993839;28;20042;-70
2022/07/15 07:51:59;;;;;;;1.48;0.20;;;18.90;95.20;;;;;;5025757;28;20076;-69
2022/07/15 07:54:25;;;;;;;1.30;0.10;;;18.90;93.90;;;;;;4992939;28;20405;-69
2022/07/15 07:56:51;;;;;;;1.75;0.10;;;19.00;94.10;;;;;;4992297;28;20437;-69
2022/07/15 07:59:17;;;;;;;1.33;0.10;;;19.10;93.50;;;;;;4996725;28;20392;-69
2022/07/15 08:01:43;;;;;;;4.50;0.40;;;19.30;94.50;;;;;;4989422;28;20059;-69
2022/07/15 08:04:10;;;;;;;3.80;0.20;;;19.50;94.10;;;;;;4996359;28;20042;-69
2022/07/15 08:06:38;;;;;;;1.42;0.20;;;19.80;94.50;;;;;;5025077;28;20536;-70
2022/07/15 08:09:04;;;;;;;2.63;0.30;;;20.00;94.50;;;;;;4979080;28;20220;-71
2022/07/15 08:11:30;;;;;;;1.83;0.30;;;20.60;93.60;;;;;;4993326;28;20461;-72
2022/07/15 08:13:55;;;;;;;1.80;0.20;;;20.70;91.50;;;;;;5013321;28;20045;-71
2022/07/15 08:16:21;;;;;;;2.53;0.20;;;20.60;90.80;;;;;;5030209;28;20454;-72
2022/07/15 08:18:47;;;;;;;1.02;0.17;;;20.50;88.10;;;;;;5014413;28;20085;-71
2022/07/15 08:21:14;;;;;;;3.65;0.20;;;20.40;89.30;;;;;;5031462;28;20390;-71
2022/07/15 08:23:40;;;;;;;3.17;0.10;;;20.60;89.70;;;;;;5017006;28;20504;-71
2022/07/15 08:26:07;;;;;;;2.67;0.20;;;21.10;89.80;;;;;;5014315;28;20077;-71
2022/07/15 08:28:33;;;;;;;2.35;0.20;;;21.90;89.40;;;;;;5013227;28;20073;-71
2022/07/15 08:30:59;;;;;;;1.95;0.20;;;22.40;86.40;;;;;;5029309;28;20441;-72
2022/07/15 08:33:25;;;;;;;0.40;0.00;;;22.60;83.10;;;;;;5029649;28;20049;-72
2022/07/15 08:35:51;;;;;;;2.33;0.17;;;22.40;80.40;;;;;;4997583;28;20706;-71
2022/07/15 08:38:16;;;;;;;2.17;0.30;;;22.30;76.90;;;;;;4995918;28;20053;-71
2022/07/15 08:40:43;;;;;;;2.10;0.10;;;22.50;77.20;;;;;;4995535;28;20139;-71
2022/07/15 08:43:11;;;;;;;1.73;0.20;;;22.70;75.60;;;;;;4995270;28;20077;-71
2022/07/15 08:45:39;;;;;;;1.05;0.10;;;22.90;77.20;;;;;;5029337;28;20045;-71
2022/07/15 08:48:06;;;;;;;1.58;0.20;;;22.90;73.10;;;;;;4973565;28;20054;-71
2022/07/15 08:50:33;;;;;;;0.80;0.10;;;22.90;73.40;;;;;;5028851;28;20515;-71
2022/07/15 08:52:59;;;;;;;3.50;0.20;;;23.00;72.70;;;;;;4978047;28;20097;-71
2022/07/15 08:55:25;;;;;;;0.80;0.10;;;22.80;70.80;;;;;;5016594;28;20131;-71
2022/07/15 08:57:52;;;;;;;2.38;0.13;;;22.90;72.10;;;;;;5026862;28;20058;-71
2022/07/15 09:00:20;;;;;;;1.52;0.10;;;23.30;70.20;;;;;;5031595;28;20165;-70
2022/07/15 09:02:46;;;;;;;0.75;0.20;;;23.50;69.20;;;;;;5012174;28;20060;-70
2022/07/15 09:05:21;;;;;;;1.38;0.10;;;23.20;69.00;;;;;;5030902;28;20076;-69
2022/07/15 09:08:10;;;;;;;1.85;0.20;;;22.60;65.40;;;;;;5025188;28;20042;-70
2022/07/15 09:10:53;;;;;;;2.97;0.20;;;22.00;68.40;;;;;;4999548;28;20041;-69
2022/07/15 09:13:22;;;;;;;1.35;0.10;;;21.90;66.80;;;;;;4991316;28;20525;-69
2022/07/15 09:15:51;;;;;;;1.00;0.10;;;22.40;69.70;;;;;;4997147;28;20059;-70
2022/07/15 09:18:20;;;;;;;1.83;0.10;;;22.80;69.90;;;;;;4975543;28;20050;-69
2022/07/15 09:20:47;;;;;;;2.58;0.10;;;22.90;66.90;;;;;;5029055;28;20068;-69
2022/07/15 09:23:20;;;;;;;0.45;0.10;;;23.10;68.40;;;;;;4992805;28;20050;-69
2022/07/15 09:25:49;;;;;;;1.50;0.10;;;23.30;64.80;;;;;;4995579;28;20042;-70
2022/07/15 09:28:15;;;;;;;0.60;0.10;;;23.50;64.80;;;;;;4994172;28;20100;-70
2022/07/15 09:33:34;;;;;;;1.77;0.10;;;23.70;63.60;;;;;;4995104;28;20107;-70
2022/07/15 09:36:31;;;;;;;1.80;0.10;;;23.30;64.60;;;;;;4994270;28;20037;-69
2022/07/15 09:39:03;;;;;;;1.48;0.20;;;22.80;62.70;;;;;;4976219;28;20061;-69
2022/07/15 09:41:38;;;;;;;0.75;0.10;;;22.40;65.20;;;;;;4996476;28;20414;-69
2022/07/15 09:44:05;;;;;;;2.00;0.10;;;22.10;66.70;;;;;;4992660;28;20133;-69
2022/07/15 09:46:43;;;;;;;1.73;0.20;;;21.60;66.70;;;;;;4997035;28;20038;-69
2022/07/15 09:49:10;;;;;;;2.13;0.10;;;21.50;68.90;;;;;;4992871;28;20433;-69
2022/07/15 09:51:45;;;;;;;2.25;0.13;;;21.40;69.10;;;;;;5000977;28;20049;-70
2022/07/15 09:54:12;;;;;;;1.23;0.20;;;21.30;68.30;;;;;;4994258;28;20035;-70
2022/07/15 09:56:38;;;;;;;2.58;0.28;;;21.30;71.10;;;;;;5030723;28;20140;-70
2022/07/15 09:59:04;;;;;;;1.67;0.20;;;21.50;71.50;;;;;;4996767;28;20096;-70
2022/07/15 10:01:30;;;;;;;2.28;0.10;;;21.60;70.20;;;;;;4996752;28;20042;-70
2022/07/15 10:03:56;;;;;;;1.38;0.35;;;21.40;68.80;;;;;;5011364;28;20040;-70
2022/07/15 10:06:26;;;;;;;1.52;0.20;;;21.50;69.60;;;;;;5008628;28;20042;-70
2022/07/15 10:08:53;;;;;;;0.57;0.10;;;21.90;70.40;;;;;;4994733;28;20046;-70
2022/07/15 10:11:19;;;;;;;0.90;0.10;;;22.50;69.20;;;;;;5026799;28;20121;-71
2022/07/15 10:14:04;;;;;;;0.80;0.10;;;23.10;68.50;;;;;;4977976;28;20164;-70
2022/07/15 10:16:32;;;;;;;;;;;23.70;62.70;;;;;;4992098;28;21024;-71
2022/07/15 10:19:28;;;;;;;0.65;0.10;;;23.90;61.20;;;;;;4995633;28;19924;-71
2022/07/15 10:22:09;;;;;;;1.45;0.20;;;24.00;64.70;;;;;;4982859;28;20060;-72
2022/07/15 10:25:03;;;;;;;1.25;0.10;;;24.00;61.90;;;;;;5024084;28;20061;-71
2022/07/15 10:27:37;;;;;;;2.85;0.30;;;23.50;63.00;;;;;;4977432;28;20084;-71
2022/07/15 10:30:06;;;;;;;0.95;0.10;;;23.00;65.00;;;;;;4995967;28;20057;-71
2022/07/15 10:33:03;;;;;;;1.05;0.10;;;22.50;65.10;;;;;;5028792;28;20501;-71
2022/07/15 10:35:49;;;;;;;1.63;0.20;;;22.10;65.10;;;;;;4993924;28;20089;-71
2022/07/15 10:38:30;;;;;;;1.38;0.15;;;21.80;68.10;;;;;;4994849;28;20414;-71
2022/07/15 10:40:58;;;;;;;1.17;0.15;;;21.70;67.60;;;;;;4992676;28;20072;-71
2022/07/15 10:43:42;;;;;;;1.58;0.10;;;21.70;69.00;;;;;;5018460;28;20050;-71
2022/07/15 10:46:17;;;;;;;1.90;0.10;;;22.00;70.10;;;;;;5029025;28;20063;-72
2022/07/15 10:48:59;;;;;;;1.20;0.17;;;22.60;68.60;;;;;;4994557;28;20378;-71
2022/07/15 10:51:37;;;;;;;1.30;0.30;;;23.30;67.10;;;;;;4995932;28;20107;-71
2022/07/15 10:54:04;;;;;;;2.83;0.20;;;24.00;65.20;;;;;;4992775;28;20052;-71
2022/07/15 10:56:32;;;;;;;0.95;0.10;;;24.40;63.50;;;;;;4993757;28;20129;-71
2022/07/15 10:59:08;;;;;;;1.27;0.10;;;24.60;62.70;;;;;;4993975;28;20132;-71
2022/07/15 11:01:34;;;;;;;2.60;0.13;;;24.60;61.00;;;;;;5027097;28;20425;-70
2022/07/15 11:04:21;;;;;;;1.20;0.20;;;24.50;60.10;;;;;;5012025;28;20034;-71
2022/07/15 11:07:09;;;;;;;1.67;0.20;;;24.20;59.60;;;;;;5027436;28;20052;-71
2022/07/15 11:09:58;;;;;;;1.38;0.20;;;24.00;59.20;;;;;;5011098;28;20056;-71
2022/07/15 11:12:49;;;;;;;2.92;0.20;;;23.60;61.60;;;;;;5007691;28;20405;-70
2022/07/15 11:15:17;;;;;;;1.08;0.35;;;23.30;61.50;;;;;;4997191;28;20046;-70
2022/07/15 11:17:46;;;;;;;2.05;0.35;;;22.90;63.00;;;;;;5025491;28;20117;-70
2022/07/15 11:20:30;;;;;;;1.42;0.20;;;22.50;64.00;;;;;;4980350;28;20410;-71
2022/07/15 11:22:58;;;;;;;2.03;0.20;;;22.10;64.50;;;;;;5009117;28;20582;-70
2022/07/15 11:25:35;;;;;;;1.77;0.10;;;21.80;65.50;;;;;;4997819;28;20038;-70
2022/07/15 11:28:07;;;;;;;1.83;0.28;;;21.50;67.80;;;;;;5009296;28;20049;-70
2022/07/15 11:30:35;;;;;;;2.25;0.03;;;21.40;68.70;;;;;;4977829;28;20058;-70
2022/07/15 11:33:03;;;;;;;1.92;0.20;;;21.70;68.80;;;;;;5031364;28;20060;-70
2022/07/15 11:35:30;;;;;;;3.05;0.57;;;22.10;68.70;;;;;;4997403;28;20042;-70
2022/07/15 11:38:02;;;;;;;3.92;0.20;;;22.30;68.30;;;;;;4993720;28;20540;-72
2022/07/15 11:46:05;;;;;;;1.33;0.10;;;21.60;67.40;;;;;;5031714;28;20133;-71
2022/07/15 11:48:38;;;;;;;1.35;0.20;;;21.40;68.50;;;;;;4995543;28;20129;-69
2022/07/15 11:51:05;;;;;;;3.60;0.45;;;21.10;69.30;;;;;;5028829;28;20038;-71
2022/07/15 11:53:40;;;;;;;4.10;0.22;;;20.80;69.60;;;;;;4998292;28;20561;-71
2022/07/15 11:56:07;;;;;;;1.33;0.10;;;20.70;70.50;;;;;;5000185;28;20173;-71
2022/07/15 11:58:39;;;;;;;3.33;0.10;;;20.60;70.90;;;;;;5000881;28;20152;-71
2022/07/15 12:01:11;;;;;;;1.52;0.20;;;20.70;71.60;;;;;;5005831;28;20125;-71
2022/07/15 12:03:43;;;;;;;3.63;0.30;;;20.80;71.20;;;;;;5000537;28;20076;-72
2022/07/15 12:06:20;;;;;;;4.35;0.85;;;20.80;71.30;;;;;;4998321;28;20765;-72
2022/07/15 12:08:52;;;;;;;1.40;0.10;;;20.90;72.10;;;;;;4996536;28;20144;-69
2022/07/15 12:11:32;;;;;;;2.65;0.40;;;21.00;71.90;;;;;;5004332;28;20061;-70
2022/07/15 12:13:59;;;;;;;3.13;0.40;;;21.00;72.00;;;;;;5033771;28;20046;-71
2022/07/15 12:16:27;;;;;;;1.73;0.15;;;21.10;72.10;;;;;;5000729;28;20525;-70
2022/07/15 12:18:55;;;;;;;2.63;0.20;;;21.20;71.00;;;;;;5017120;28;20029;-71
2022/07/15 12:21:22;;;;;;;0.65;0.10;;;21.20;70.60;;;;;;4987334;28;20978;-71
2022/07/15 12:24:04;;;;;;;1.02;0.10;;;21.60;72.30;;;;;;5004817;28;20057;-71
2022/07/15 12:26:38;;;;;;;3.10;0.20;;;22.40;70.10;;;;;;5033059;28;20493;-72
2022/07/15 12:29:05;;;;;;;2.20;0.10;;;22.80;70.10;;;;;;5034499;28;20042;-72
2022/07/15 12:31:33;;;;;;;0.60;0.15;;;22.90;67.10;;;;;;5036888;28;20499;-71
2022/07/15 12:33:59;;;;;;;2.67;0.35;;;22.90;65.90;;;;;;5021305;28;20490;-71
2022/07/15 12:36:29;;;;;;;1.25;0.20;;;22.70;66.10;;;;;;4995945;28;20050;-71
2022/07/15 12:39:22;;;;;;;1.67;0.20;;;22.60;67.50;;;;;;4992010;28;20103;-71
2022/07/15 12:42:04;;;;;;;0.50;0.10;;;22.40;67.20;;;;;;4997254;28;20041;-71
2022/07/15 12:44:32;;;;;;;1.35;0.10;;;22.40;66.20;;;;;;4996272;28;20060;-71
2022/07/15 12:47:03;;;;;;;3.70;0.20;;;22.40;66.70;;;;;;5013116;28;20049;-71
2022/07/15 12:49:46;;;;;;;1.98;0.20;;;22.40;66.00;;;;;;5011928;28;20107;-72
2022/07/15 12:52:17;;;;;;;1.25;0.10;;;22.50;63.90;;;;;;5013708;28;20073;-71
2022/07/15 12:54:43;;;;;;;0.88;0.10;;;22.30;64.10;;;;;;5011773;28;20621;-71
2022/07/15 12:57:42;;;;;;;1.63;0.10;;;22.20;64.70;;;;;;4987946;28;20062;-72
2022/07/15 13:00:14;;;;;;;3.55;0.20;;;22.20;65.70;;;;;;4966581;28;20677;-71
2022/07/15 13:03:18;;;;;;;1.50;0.10;;;22.20;65.90;;;;;;5024577;28;20058;-67
2022/07/15 13:05:52;;;;;;;1.95;0.30;;;22.10;65.10;;;;;;4903250;29;20040;-68